createdAt,value
2018-12-04T00:00:49.522Z,25.75
2018-12-04T00:01:49.476Z,25.76
2018-12-04T00:02:49.431Z,25.76
2018-12-04T00:03:49.385Z,25.79
2018-12-04T00:04:49.339Z,25.79
2018-12-04T00:05:49.295Z,25.75
2018-12-04T00:06:49.248Z,25.73
2018-12-04T00:07:49.204Z,25.75
2018-12-04T00:08:49.158Z,25.87
2018-12-04T00:09:49.111Z,25.88
2018-12-04T00:10:49.066Z,25.90
2018-12-04T00:11:49.022Z,25.87
2018-12-04T00:12:48.977Z,25.88
2018-12-04T00:13:48.931Z,25.87
2018-12-04T00:14:48.885Z,25.80
2018-12-04T00:15:48.840Z,25.87
2018-12-04T00:16:48.800Z,25.85
2018-12-04T00:17:48.747Z,25.87
2018-12-04T00:18:48.707Z,25.82
2018-12-04T00:19:48.659Z,25.76
2018-12-04T00:20:48.613Z,25.67
2018-12-04T00:21:48.570Z,25.62
2018-12-04T00:22:48.522Z,25.67
2018-12-04T00:23:48.527Z,25.76
2018-12-04T00:24:48.431Z,25.77
2018-12-04T00:25:48.385Z,25.87
2018-12-04T00:26:48.343Z,25.83
2018-12-04T00:27:48.300Z,25.83
2018-12-04T00:28:48.250Z,25.85
2018-12-04T00:29:48.202Z,25.87
2018-12-04T00:30:48.158Z,25.87
2018-12-04T00:31:48.117Z,25.90
2018-12-04T00:32:48.070Z,25.82
2018-12-04T00:33:48.024Z,25.88
2018-12-04T00:34:47.978Z,25.85
2018-12-04T00:35:47.931Z,25.90
2018-12-04T00:36:47.886Z,25.92
2018-12-04T00:37:47.838Z,25.88
2018-12-04T00:38:47.793Z,25.90
2018-12-04T00:39:47.749Z,25.95
2018-12-04T00:40:48.021Z,25.95
2018-12-04T00:41:47.656Z,25.97
2018-12-04T00:42:47.613Z,25.94
2018-12-04T00:43:47.569Z,26.02
2018-12-04T00:44:47.522Z,25.98
2018-12-04T00:45:47.475Z,26.02
2018-12-04T00:46:47.431Z,25.98
2018-12-04T00:47:47.384Z,25.98
2018-12-04T00:48:47.339Z,25.97
2018-12-04T00:49:47.294Z,25.98
2018-12-04T00:50:47.250Z,26.01
2018-12-04T00:51:47.203Z,25.99
2018-12-04T00:52:47.157Z,25.95
2018-12-04T00:53:47.112Z,25.97
2018-12-04T00:54:47.068Z,25.99
2018-12-04T00:55:47.023Z,25.97
2018-12-04T00:56:46.977Z,25.99
2018-12-04T00:57:46.931Z,25.99
2018-12-04T00:58:46.886Z,25.94
2018-12-04T00:59:46.841Z,26.02
2018-12-04T01:00:46.796Z,26.06
2018-12-04T01:01:46.750Z,26.13
2018-12-04T01:02:46.704Z,26.10
2018-12-04T01:03:46.659Z,26.10
2018-12-04T01:04:46.613Z,26.09
2018-12-04T01:05:46.568Z,26.12
2018-12-04T01:06:46.523Z,26.12
2018-12-04T01:07:46.477Z,26.17
2018-12-04T01:08:46.433Z,26.18
2018-12-04T01:09:46.387Z,26.18
2018-12-04T01:10:46.342Z,26.26
2018-12-04T01:11:46.304Z,26.26
2018-12-04T01:12:46.252Z,26.26
2018-12-04T01:13:46.206Z,26.20
2018-12-04T01:14:46.161Z,26.18
2018-12-04T01:15:46.118Z,26.17
2018-12-04T01:16:46.070Z,26.18
2018-12-04T01:17:46.025Z,26.26
2018-12-04T01:18:45.985Z,26.26
2018-12-04T01:19:45.936Z,26.23
2018-12-04T01:20:45.891Z,26.33
2018-12-04T01:21:45.843Z,26.28
2018-12-04T01:22:45.799Z,26.29
2018-12-04T01:23:45.753Z,26.23
2018-12-04T01:24:45.708Z,26.26
2018-12-04T01:25:45.662Z,26.28
2018-12-04T01:26:45.617Z,26.33
2018-12-04T01:27:45.571Z,26.30
2018-12-04T01:28:45.526Z,26.35
2018-12-04T01:29:45.481Z,26.30
2018-12-04T01:30:45.436Z,26.30
2018-12-04T01:31:45.391Z,26.36
2018-12-04T01:32:45.346Z,26.29
2018-12-04T01:33:45.298Z,26.29
2018-12-04T01:34:45.255Z,26.29
2018-12-04T01:35:45.210Z,26.37
2018-12-04T01:36:45.164Z,26.37
2018-12-04T01:37:45.118Z,26.36
2018-12-04T01:38:45.074Z,26.33
2018-12-04T01:39:45.028Z,26.36
2018-12-04T01:40:44.984Z,26.33
2018-12-04T01:41:44.938Z,26.29
2018-12-04T01:42:44.893Z,26.43
2018-12-04T01:43:44.848Z,26.40
2018-12-04T01:44:44.803Z,26.37
2018-12-04T01:45:44.757Z,26.36
2018-12-04T01:46:44.711Z,26.40
2018-12-04T01:47:44.667Z,26.39
2018-12-04T01:48:44.627Z,26.37
2018-12-04T01:49:44.576Z,26.33
2018-12-04T01:50:44.530Z,26.30
2018-12-04T01:51:44.486Z,26.33
2018-12-04T01:52:44.441Z,26.33
2018-12-04T01:53:44.396Z,26.37
2018-12-04T01:54:44.350Z,26.35
2018-12-04T01:55:44.306Z,26.32
2018-12-04T01:56:44.261Z,26.29
2018-12-04T01:57:44.214Z,26.33
2018-12-04T01:58:44.169Z,26.35
2018-12-04T01:59:44.125Z,26.37
2018-12-04T02:00:44.082Z,26.35
2018-12-04T02:01:44.050Z,26.36
2018-12-04T02:02:43.989Z,26.30
2018-12-04T02:03:43.943Z,26.39
2018-12-04T02:04:43.948Z,26.29
2018-12-04T02:05:43.853Z,26.33
2018-12-04T02:06:43.812Z,26.45
2018-12-04T02:07:43.764Z,26.35
2018-12-04T02:08:43.718Z,26.37
2018-12-04T02:09:43.990Z,26.36
2018-12-04T02:10:43.627Z,26.39
2018-12-04T02:11:43.583Z,26.33
2018-12-04T02:12:43.538Z,26.37
2018-12-04T02:13:43.492Z,26.35
2018-12-04T02:14:43.447Z,26.33
2018-12-04T02:15:43.402Z,26.32
2018-12-04T02:16:43.359Z,26.36
2018-12-04T02:17:43.311Z,26.30
2018-12-04T02:18:43.266Z,26.33
2018-12-04T02:19:43.224Z,26.32
2018-12-04T02:20:43.176Z,26.32
2018-12-04T02:21:43.130Z,26.36
2018-12-04T02:22:43.085Z,26.29
2018-12-04T02:23:43.042Z,26.32
2018-12-04T02:24:42.995Z,26.36
2018-12-04T02:25:42.950Z,26.32
2018-12-04T02:26:42.905Z,26.37
2018-12-04T02:27:42.860Z,26.32
2018-12-04T02:28:42.815Z,26.37
2018-12-04T02:29:42.768Z,26.36
2018-12-04T02:30:42.728Z,26.32
2018-12-04T02:31:42.680Z,26.32
2018-12-04T02:32:42.633Z,26.33
2018-12-04T02:33:42.589Z,26.36
2018-12-04T02:34:42.544Z,26.32
2018-12-04T02:35:42.498Z,26.35
2018-12-04T02:36:42.454Z,26.36
2018-12-04T02:37:42.410Z,26.33
2018-12-04T02:38:42.365Z,26.32
2018-12-04T02:39:42.320Z,26.40
2018-12-04T02:40:42.274Z,26.39
2018-12-04T02:41:42.236Z,26.30
2018-12-04T02:42:42.189Z,26.33
2018-12-04T02:43:42.138Z,26.33
2018-12-04T02:44:42.093Z,26.36
2018-12-04T02:45:42.048Z,26.33
2018-12-04T02:46:42.003Z,26.33
2018-12-04T02:47:41.958Z,26.37
2018-12-04T02:48:41.913Z,26.40
2018-12-04T02:49:41.866Z,26.32
2018-12-04T02:50:41.823Z,26.33
2018-12-04T02:51:41.777Z,26.33
2018-12-04T02:52:41.733Z,26.36
2018-12-04T02:53:41.687Z,26.36
2018-12-04T02:54:41.642Z,26.36
2018-12-04T02:55:41.597Z,26.36
2018-12-04T02:56:41.552Z,26.36
2018-12-04T02:57:41.507Z,26.36
2018-12-04T02:58:41.462Z,26.35
2018-12-04T02:59:41.416Z,26.36
2018-12-04T03:00:41.380Z,26.36
2018-12-04T03:01:41.325Z,26.29
2018-12-04T03:02:41.284Z,26.30
2018-12-04T03:03:41.237Z,26.30
2018-12-04T03:04:41.190Z,26.35
2018-12-04T03:05:41.145Z,26.32
2018-12-04T03:06:41.102Z,26.36
2018-12-04T03:07:41.058Z,26.18
2018-12-04T03:08:41.012Z,26.26
2018-12-04T03:09:40.966Z,26.25
2018-12-04T03:10:40.920Z,26.21
2018-12-04T03:11:40.883Z,26.10
2018-12-04T03:12:40.837Z,25.82
2018-12-04T03:13:40.829Z,25.69
2018-12-04T03:14:40.739Z,25.64
2018-12-04T03:15:40.707Z,25.70
2018-12-04T03:16:40.967Z,25.77
2018-12-04T03:17:40.604Z,25.87
2018-12-04T03:18:40.566Z,25.85
2018-12-04T03:19:40.514Z,25.83
2018-12-04T03:20:40.469Z,25.65
2018-12-04T03:21:40.424Z,25.57
2018-12-04T03:22:40.377Z,25.57
2018-12-04T03:23:40.334Z,25.55
2018-12-04T03:24:40.288Z,25.58
2018-12-04T03:25:40.242Z,25.58
2018-12-04T03:26:40.206Z,25.57
2018-12-04T03:27:40.153Z,25.58
2018-12-04T03:28:40.108Z,25.60
2018-12-04T03:29:40.061Z,25.61
2018-12-04T03:30:40.019Z,25.60
2018-12-04T03:31:39.974Z,25.58
2018-12-04T03:32:39.926Z,25.58
2018-12-04T03:33:39.883Z,25.55
2018-12-04T03:34:39.835Z,25.50
2018-12-04T03:35:39.790Z,25.50
2018-12-04T03:36:39.754Z,25.51
2018-12-04T03:37:39.699Z,25.46
2018-12-04T03:38:39.653Z,25.38
2018-12-04T03:39:39.614Z,25.55
2018-12-04T03:40:39.668Z,25.40
2018-12-04T03:41:39.517Z,25.33
2018-12-04T03:42:39.471Z,25.21
2018-12-04T03:43:39.431Z,25.21
2018-12-04T03:44:39.383Z,25.35
2018-12-04T03:45:39.336Z,25.33
2018-12-04T03:46:39.339Z,25.32
2018-12-04T03:47:39.245Z,25.40
2018-12-04T03:48:39.203Z,25.39
2018-12-04T03:49:39.155Z,25.32
2018-12-04T03:50:39.109Z,25.32
2018-12-04T03:51:39.071Z,25.39
2018-12-04T03:52:39.021Z,25.38
2018-12-04T03:53:38.971Z,25.38
2018-12-04T03:54:38.926Z,25.32
2018-12-04T03:55:38.881Z,25.32
2018-12-04T03:56:38.841Z,25.32
2018-12-04T03:57:38.790Z,25.35
2018-12-04T03:58:38.745Z,25.30
2018-12-04T03:59:38.699Z,25.35
2018-12-04T04:00:38.655Z,25.28
2018-12-04T04:01:38.608Z,25.33
2018-12-04T04:02:38.563Z,25.36
2018-12-04T04:03:38.519Z,25.33
2018-12-04T04:04:38.472Z,25.43
2018-12-04T04:05:38.427Z,25.43
2018-12-04T04:06:38.382Z,25.33
2018-12-04T04:07:38.342Z,25.42
2018-12-04T04:08:38.290Z,25.39
2018-12-04T04:09:38.294Z,25.39
2018-12-04T04:10:38.199Z,25.32
2018-12-04T04:11:38.156Z,25.39
2018-12-04T04:12:38.108Z,25.35
2018-12-04T04:13:38.062Z,25.42
2018-12-04T04:14:38.017Z,25.46
2018-12-04T04:15:37.971Z,25.50
2018-12-04T04:16:37.926Z,25.52
2018-12-04T04:17:37.883Z,25.46
2018-12-04T04:18:37.834Z,25.54
2018-12-04T04:19:37.789Z,25.55
2018-12-04T04:20:37.744Z,25.45
2018-12-04T04:21:37.701Z,25.46
2018-12-04T04:22:37.653Z,25.50
2018-12-04T04:23:37.640Z,25.54
2018-12-04T04:24:37.562Z,25.55
2018-12-04T04:25:37.516Z,25.60
2018-12-04T04:26:37.471Z,25.58
2018-12-04T04:27:37.425Z,25.64
2018-12-04T04:28:37.382Z,25.64
2018-12-04T04:29:37.334Z,25.62
2018-12-04T04:30:37.288Z,25.67
2018-12-04T04:31:37.243Z,25.76
2018-12-04T04:32:37.198Z,25.73
2018-12-04T04:33:37.151Z,25.69
2018-12-04T04:34:37.157Z,25.62
2018-12-04T04:35:37.062Z,25.73
2018-12-04T04:36:37.017Z,25.73
2018-12-04T04:37:36.970Z,25.76
2018-12-04T04:38:36.924Z,25.73
2018-12-04T04:39:36.879Z,25.73
2018-12-04T04:40:36.836Z,25.80
2018-12-04T04:41:36.795Z,25.80
2018-12-04T04:42:36.743Z,25.73
2018-12-04T04:43:36.697Z,25.77
2018-12-04T04:44:36.655Z,25.62
2018-12-04T04:45:36.606Z,25.64
2018-12-04T04:46:36.561Z,25.76
2018-12-04T04:47:36.519Z,25.80
2018-12-04T04:48:36.470Z,25.79
2018-12-04T04:49:36.424Z,25.73
2018-12-04T04:50:36.380Z,25.82
2018-12-04T04:51:36.334Z,25.87
2018-12-04T04:52:36.292Z,25.88
2018-12-04T04:53:36.316Z,25.87
2018-12-04T04:54:36.198Z,25.88
2018-12-04T04:55:36.153Z,25.91
2018-12-04T04:56:36.107Z,25.87
2018-12-04T04:57:36.061Z,25.90
2018-12-04T04:58:36.065Z,25.83
2018-12-04T04:59:35.971Z,25.60
2018-12-04T05:00:35.926Z,25.47
2018-12-04T05:01:35.879Z,25.46
2018-12-04T05:02:35.835Z,25.52
2018-12-04T05:03:35.790Z,25.54
2018-12-04T05:04:35.742Z,25.57
2018-12-04T05:05:35.697Z,25.64
2018-12-04T05:06:35.653Z,25.65
2018-12-04T05:07:35.606Z,25.61
2018-12-04T05:08:35.562Z,25.62
2018-12-04T05:09:35.518Z,25.67
2018-12-04T05:10:35.470Z,25.72
2018-12-04T05:11:35.425Z,25.67
2018-12-04T05:12:35.380Z,25.50
2018-12-04T05:13:35.344Z,25.46
2018-12-04T05:14:35.289Z,25.47
2018-12-04T05:15:35.249Z,25.50
2018-12-04T05:16:35.199Z,25.61
2018-12-04T05:17:35.152Z,25.62
2018-12-04T05:18:35.106Z,25.70
2018-12-04T05:19:35.061Z,25.67
2018-12-04T05:20:35.016Z,25.75
2018-12-04T05:21:34.973Z,25.61
2018-12-04T05:22:34.924Z,25.58
2018-12-04T05:23:34.879Z,25.54
2018-12-04T05:24:34.837Z,25.54
2018-12-04T05:25:34.787Z,25.58
2018-12-04T05:26:34.743Z,25.65
2018-12-04T05:27:34.697Z,25.57
2018-12-04T05:28:34.651Z,25.61
2018-12-04T05:29:34.606Z,25.61
2018-12-04T05:30:34.560Z,25.62
2018-12-04T05:31:34.515Z,25.61
2018-12-04T05:32:34.468Z,25.58
2018-12-04T05:33:34.424Z,25.57
2018-12-04T05:34:34.379Z,25.54
2018-12-04T05:35:34.333Z,25.40
2018-12-04T05:36:34.288Z,25.18
2018-12-04T05:37:34.241Z,24.96
2018-12-04T05:38:34.196Z,24.85
2018-12-04T05:39:34.159Z,24.69
2018-12-04T05:40:34.106Z,24.61
2018-12-04T05:41:34.102Z,24.42
2018-12-04T05:42:34.014Z,24.40
2018-12-04T05:43:33.969Z,24.31
2018-12-04T05:44:33.923Z,24.46
2018-12-04T05:45:33.879Z,24.42
2018-12-04T05:46:33.833Z,24.46
2018-12-04T05:47:33.785Z,24.45
2018-12-04T05:48:33.740Z,24.42
2018-12-04T05:49:33.695Z,24.49
2018-12-04T05:50:33.649Z,24.45
2018-12-04T05:51:33.603Z,24.47
2018-12-04T05:52:33.560Z,24.69
2018-12-04T05:53:33.522Z,24.81
2018-12-04T05:54:33.466Z,25.00
2018-12-04T05:55:33.420Z,24.91
2018-12-04T05:56:33.375Z,24.96
2018-12-04T05:57:33.329Z,25.13
2018-12-04T05:58:33.284Z,25.08
2018-12-04T05:59:33.238Z,25.24
2018-12-04T06:00:33.193Z,25.09
2018-12-04T06:01:33.146Z,24.91
2018-12-04T06:02:33.101Z,24.88
2018-12-04T06:03:33.062Z,25.02
2018-12-04T06:04:33.010Z,24.96
2018-12-04T06:05:32.982Z,24.95
2018-12-04T06:06:32.917Z,24.95
2018-12-04T06:07:32.972Z,25.08
2018-12-04T06:08:32.827Z,25.10
2018-12-04T06:09:32.781Z,25.18
2018-12-04T06:10:32.736Z,25.35
2018-12-04T06:11:32.690Z,25.38
2018-12-04T06:12:32.649Z,25.38
2018-12-04T06:13:32.598Z,25.47
2018-12-04T06:14:32.552Z,25.36
2018-12-04T06:15:32.507Z,25.23
2018-12-04T06:16:32.463Z,25.08
2018-12-04T06:17:32.415Z,25.10
2018-12-04T06:18:32.370Z,25.09
2018-12-04T06:19:32.326Z,25.27
2018-12-04T06:20:32.279Z,25.35
2018-12-04T06:21:32.232Z,25.14
2018-12-04T06:22:32.186Z,24.99
2018-12-04T06:23:32.142Z,24.99
2018-12-04T06:24:32.096Z,25.03
2018-12-04T06:25:32.050Z,25.03
2018-12-04T06:26:32.003Z,25.10
2018-12-04T06:27:31.958Z,25.32
2018-12-04T06:28:31.916Z,25.33
2018-12-04T06:29:31.867Z,25.47
2018-12-04T06:30:31.822Z,25.35
2018-12-04T06:31:31.776Z,25.32
2018-12-04T06:32:31.732Z,25.30
2018-12-04T06:33:31.685Z,25.03
2018-12-04T06:34:31.638Z,25.09
2018-12-04T06:35:31.594Z,25.14
2018-12-04T06:36:31.548Z,25.08
2018-12-04T06:37:31.501Z,25.25
2018-12-04T06:38:31.457Z,25.23
2018-12-04T06:39:31.414Z,25.30
2018-12-04T06:40:31.365Z,25.35
2018-12-04T06:41:31.319Z,25.36
2018-12-04T06:42:31.274Z,25.36
2018-12-04T06:43:31.228Z,25.42
2018-12-04T06:44:31.184Z,25.42
2018-12-04T06:45:31.137Z,25.40
2018-12-04T06:46:31.092Z,25.36
2018-12-04T06:47:31.046Z,25.36
2018-12-04T06:48:31.000Z,25.40
2018-12-04T06:49:30.954Z,25.33
2018-12-04T06:50:30.909Z,25.40
2018-12-04T06:51:30.866Z,25.55
2018-12-04T06:52:30.818Z,25.54
2018-12-04T06:53:30.772Z,25.50
2018-12-04T06:54:30.725Z,25.52
2018-12-04T06:55:30.681Z,25.50
2018-12-04T06:56:30.636Z,25.47
2018-12-04T06:57:30.590Z,25.50
2018-12-04T06:58:30.543Z,25.51
2018-12-04T06:59:30.498Z,25.52
2018-12-04T07:00:30.454Z,25.54
2018-12-04T07:01:30.724Z,25.39
2018-12-04T07:02:30.362Z,25.39
2018-12-04T07:03:30.320Z,25.40
2018-12-04T07:04:30.271Z,25.47
2018-12-04T07:05:30.231Z,25.51
2018-12-04T07:06:30.184Z,25.54
2018-12-04T07:07:30.134Z,25.46
2018-12-04T07:08:30.091Z,25.55
2018-12-04T07:09:30.043Z,25.58
2018-12-04T07:10:29.997Z,25.60
2018-12-04T07:11:29.952Z,25.64
2018-12-04T07:12:29.906Z,25.58
2018-12-04T07:13:29.860Z,25.62
2018-12-04T07:14:29.815Z,25.67
2018-12-04T07:15:29.775Z,25.64
2018-12-04T07:16:29.725Z,25.69
2018-12-04T07:17:29.677Z,25.64
2018-12-04T07:18:29.638Z,25.62
2018-12-04T07:19:29.586Z,25.58
2018-12-04T07:20:29.542Z,25.64
2018-12-04T07:21:29.495Z,25.67
2018-12-04T07:22:29.451Z,25.73
2018-12-04T07:23:29.406Z,25.76
2018-12-04T07:24:29.359Z,25.72
2018-12-04T07:25:29.356Z,25.83
2018-12-04T07:26:29.268Z,25.82
2018-12-04T07:27:29.223Z,25.82
2018-12-04T07:28:29.178Z,25.76
2018-12-04T07:29:29.131Z,25.82
2018-12-04T07:30:29.088Z,25.75
2018-12-04T07:31:29.041Z,25.87
2018-12-04T07:32:28.995Z,25.87
2018-12-04T07:33:28.949Z,25.83
2018-12-04T07:34:28.904Z,25.90
2018-12-04T07:35:28.858Z,25.90
2018-12-04T07:36:28.813Z,25.76
2018-12-04T07:37:28.768Z,25.85
2018-12-04T07:38:28.721Z,25.73
2018-12-04T07:39:28.676Z,25.77
2018-12-04T07:40:28.631Z,25.61
2018-12-04T07:41:28.587Z,25.69
2018-12-04T07:42:28.540Z,25.61
2018-12-04T07:43:28.495Z,25.58
2018-12-04T07:44:28.449Z,25.60
2018-12-04T07:45:28.403Z,25.58
2018-12-04T07:46:28.358Z,25.47
2018-12-04T07:47:28.312Z,25.46
2018-12-04T07:48:28.267Z,25.39
2018-12-04T07:49:28.221Z,25.32
2018-12-04T07:50:28.176Z,25.05
2018-12-04T07:51:28.131Z,24.91
2018-12-04T07:52:28.086Z,24.78
2018-12-04T07:53:28.039Z,24.52
2018-12-04T07:54:27.993Z,24.37
2018-12-04T07:55:27.950Z,24.27
2018-12-04T07:56:27.903Z,24.12
2018-12-04T07:57:27.858Z,24.02
2018-12-04T07:58:27.812Z,23.97
2018-12-04T07:59:27.769Z,23.84
2018-12-04T08:00:27.723Z,23.60
2018-12-04T08:01:27.675Z,23.35
2018-12-04T08:02:27.629Z,23.33
2018-12-04T08:03:27.584Z,23.28
2018-12-04T08:04:27.538Z,23.28
2018-12-04T08:05:27.491Z,23.13
2018-12-04T08:06:27.447Z,23.09
2018-12-04T08:07:27.400Z,22.98
2018-12-04T08:08:27.355Z,22.98
2018-12-04T08:09:27.308Z,22.98
2018-12-04T08:10:27.262Z,22.92
2018-12-04T08:11:27.219Z,22.95
2018-12-04T08:12:27.172Z,22.88
2018-12-04T08:13:27.126Z,22.80
2018-12-04T08:14:27.085Z,22.77
2018-12-04T08:15:27.034Z,22.75
2018-12-04T08:16:27.007Z,22.68
2018-12-04T08:17:26.942Z,22.64
2018-12-04T08:18:26.896Z,22.77
2018-12-04T08:19:26.850Z,22.72
2018-12-04T08:20:26.809Z,22.73
2018-12-04T08:21:26.757Z,22.76
2018-12-04T08:22:26.713Z,22.67
2018-12-04T08:23:26.667Z,22.61
2018-12-04T08:24:26.622Z,22.55
2018-12-04T08:25:26.575Z,22.54
2018-12-04T08:26:26.529Z,22.60
2018-12-04T08:27:26.485Z,22.47
2018-12-04T08:28:26.436Z,22.57
2018-12-04T08:29:26.390Z,22.61
2018-12-04T08:30:26.344Z,22.57
2018-12-04T08:31:26.299Z,22.46
2018-12-04T08:32:26.252Z,22.40
2018-12-04T08:33:26.206Z,22.37
2018-12-04T08:34:26.161Z,22.40
2018-12-04T08:35:26.115Z,22.36
2018-12-04T08:36:26.069Z,22.31
2018-12-04T08:37:26.021Z,22.30
2018-12-04T08:38:25.976Z,22.31
2018-12-04T08:39:25.930Z,22.33
2018-12-04T08:40:25.885Z,22.31
2018-12-04T08:41:25.841Z,22.28
2018-12-04T08:42:25.791Z,22.35
2018-12-04T08:43:25.745Z,22.28
2018-12-04T08:44:25.700Z,22.40
2018-12-04T08:45:25.652Z,22.33
2018-12-04T08:46:25.607Z,22.33
2018-12-04T08:47:25.561Z,22.24
2018-12-04T08:48:25.516Z,22.20
2018-12-04T08:49:25.467Z,22.14
2018-12-04T08:50:25.423Z,22.17
2018-12-04T08:51:25.377Z,22.17
2018-12-04T08:52:25.331Z,22.17
2018-12-04T08:53:25.283Z,22.09
2018-12-04T08:54:25.288Z,22.06
2018-12-04T08:55:25.192Z,21.96
2018-12-04T08:56:25.145Z,22.00
2018-12-04T08:57:25.098Z,22.05
2018-12-04T08:58:25.052Z,21.99
2018-12-04T08:59:25.007Z,21.99
2018-12-04T09:00:24.961Z,21.92
2018-12-04T09:01:24.915Z,21.96
2018-12-04T09:02:24.870Z,22.00
2018-12-04T09:03:24.821Z,21.90
2018-12-04T09:04:24.779Z,22.06
2018-12-04T09:05:24.729Z,21.92
2018-12-04T09:06:24.683Z,21.98
2018-12-04T09:07:24.636Z,21.98
2018-12-04T09:08:24.591Z,22.00
2018-12-04T09:09:24.543Z,21.90
2018-12-04T09:10:24.497Z,21.86
2018-12-04T09:11:24.451Z,22.00
2018-12-04T09:12:24.407Z,21.99
2018-12-04T09:13:24.358Z,21.92
2018-12-04T09:14:24.314Z,21.91
2018-12-04T09:15:24.266Z,21.99
2018-12-04T09:16:24.220Z,21.91
2018-12-04T09:17:24.175Z,22.00
2018-12-04T09:18:24.178Z,21.86
2018-12-04T09:19:24.081Z,21.91
2018-12-04T09:20:24.071Z,21.86
2018-12-04T09:21:24.021Z,21.91
2018-12-04T09:22:23.961Z,21.86
2018-12-04T09:23:23.912Z,21.90
2018-12-04T09:24:23.851Z,21.84
2018-12-04T09:25:23.803Z,21.86
2018-12-04T09:26:23.830Z,21.86
2018-12-04T09:27:23.757Z,21.86
2018-12-04T09:28:23.688Z,21.90
2018-12-04T09:29:23.655Z,22.00
2018-12-04T09:30:23.601Z,21.98
2018-12-04T09:31:23.524Z,21.84
2018-12-04T09:32:23.481Z,22.03
2018-12-04T09:33:23.431Z,21.94
2018-12-04T09:34:23.385Z,21.98
2018-12-04T09:35:23.339Z,21.96
2018-12-04T09:36:23.295Z,21.98
2018-12-04T09:37:23.249Z,22.00
2018-12-04T09:38:23.199Z,21.98
2018-12-04T09:39:23.155Z,21.92
2018-12-04T09:40:23.109Z,21.80
2018-12-04T09:41:23.060Z,21.82
2018-12-04T09:42:23.015Z,22.00
2018-12-04T09:43:22.969Z,22.00
2018-12-04T09:44:22.972Z,22.02
2018-12-04T09:45:22.876Z,21.91
2018-12-04T09:46:22.830Z,21.92
2018-12-04T09:47:22.784Z,21.99
2018-12-04T09:48:22.738Z,22.00
2018-12-04T09:49:22.691Z,21.96
2018-12-04T09:50:22.644Z,22.02
2018-12-04T09:51:22.599Z,21.96
2018-12-04T09:52:22.553Z,21.99
2018-12-04T09:53:25.239Z,21.92
2018-12-04T09:54:22.459Z,21.99
2018-12-04T09:55:22.415Z,21.99
2018-12-04T09:56:22.369Z,21.92
2018-12-04T09:57:22.319Z,21.98
2018-12-04T09:58:22.274Z,21.92
2018-12-04T09:59:22.228Z,22.07
2018-12-04T10:00:22.181Z,21.90
2018-12-04T10:01:22.135Z,21.92
2018-12-04T10:02:22.088Z,22.06
2018-12-04T10:03:22.045Z,21.99
2018-12-04T10:04:21.995Z,21.99
2018-12-04T10:05:21.949Z,21.86
2018-12-04T10:06:21.907Z,21.98
2018-12-04T10:07:21.857Z,21.92
2018-12-04T10:08:21.811Z,21.91
2018-12-04T10:09:21.764Z,21.98
2018-12-04T10:10:21.768Z,22.02
2018-12-04T10:11:21.709Z,21.91
2018-12-04T10:12:21.625Z,21.98
2018-12-04T10:13:21.578Z,22.00
2018-12-04T10:14:21.531Z,21.84
2018-12-04T10:15:21.487Z,21.92
2018-12-04T10:16:21.442Z,21.86
2018-12-04T10:17:21.394Z,21.90
2018-12-04T10:18:21.347Z,21.88
2018-12-04T10:19:21.303Z,21.96
2018-12-04T10:20:21.253Z,21.88
2018-12-04T10:21:21.207Z,22.02
2018-12-04T10:22:21.162Z,22.02
2018-12-04T10:23:21.114Z,22.09
2018-12-04T10:24:21.069Z,22.03
2018-12-04T10:25:21.020Z,21.91
2018-12-04T10:26:20.974Z,21.88
2018-12-04T10:27:20.936Z,22.00
2018-12-04T10:28:20.882Z,21.84
2018-12-04T10:29:20.835Z,21.86
2018-12-04T10:30:20.789Z,21.92
2018-12-04T10:31:20.744Z,21.92
2018-12-04T10:32:20.698Z,21.84
2018-12-04T10:33:20.651Z,21.86
2018-12-04T10:34:20.603Z,21.84
2018-12-04T10:35:20.557Z,21.86
2018-12-04T10:36:20.512Z,21.83
2018-12-04T10:37:20.467Z,21.80
2018-12-04T10:38:20.418Z,21.75
2018-12-04T10:39:20.373Z,21.71
2018-12-04T10:40:20.326Z,21.69
2018-12-04T10:41:20.279Z,21.56
2018-12-04T10:42:20.241Z,21.71
2018-12-04T10:43:20.189Z,21.72
2018-12-04T10:44:20.145Z,21.62
2018-12-04T10:45:20.094Z,21.58
2018-12-04T10:46:20.056Z,21.62
2018-12-04T10:47:20.002Z,21.64
2018-12-04T10:48:19.956Z,21.52
2018-12-04T10:49:19.908Z,21.59
2018-12-04T10:50:19.863Z,21.59
2018-12-04T10:51:19.815Z,21.46
2018-12-04T10:52:19.769Z,21.47
2018-12-04T10:53:19.722Z,21.47
2018-12-04T10:54:19.677Z,21.49
2018-12-04T10:55:19.634Z,21.53
2018-12-04T10:56:19.585Z,21.54
2018-12-04T10:57:19.538Z,21.61
2018-12-04T10:58:19.491Z,21.49
2018-12-04T10:59:19.445Z,21.49
2018-12-04T11:00:19.399Z,21.52
2018-12-04T11:01:19.353Z,21.49
2018-12-04T11:02:19.306Z,21.47
2018-12-04T11:03:19.260Z,21.50
2018-12-04T11:04:19.213Z,21.46
2018-12-04T11:05:19.166Z,21.53
2018-12-04T11:06:19.119Z,21.56
2018-12-04T11:07:19.074Z,21.44
2018-12-04T11:08:19.027Z,21.47
2018-12-04T11:09:18.979Z,21.53
2018-12-04T11:10:18.933Z,21.50
2018-12-04T11:11:18.887Z,21.49
2018-12-04T11:12:18.841Z,21.56
2018-12-04T11:13:18.794Z,21.53
2018-12-04T11:14:18.748Z,21.53
2018-12-04T11:15:18.702Z,21.53
2018-12-04T11:16:18.655Z,21.58
2018-12-04T11:17:18.608Z,21.59
2018-12-04T11:18:18.562Z,21.53
2018-12-04T11:19:18.515Z,21.50
2018-12-04T11:20:18.470Z,21.40
2018-12-04T11:21:18.422Z,21.43
2018-12-04T11:22:18.376Z,21.37
2018-12-04T11:23:18.329Z,21.44
2018-12-04T11:24:18.283Z,21.34
2018-12-04T11:25:18.236Z,21.43
2018-12-04T11:26:18.191Z,21.35
2018-12-04T11:27:18.145Z,21.44
2018-12-04T11:28:18.148Z,21.32
2018-12-04T11:29:18.051Z,21.42
2018-12-04T11:30:18.005Z,21.44
2018-12-04T11:31:17.957Z,21.31
2018-12-04T11:32:17.922Z,21.37
2018-12-04T11:33:17.865Z,21.37
2018-12-04T11:34:17.820Z,21.40
2018-12-04T11:35:17.772Z,21.37
2018-12-04T11:36:17.726Z,21.43
2018-12-04T11:37:17.685Z,21.42
2018-12-04T11:38:17.632Z,21.52
2018-12-04T11:39:17.588Z,21.42
2018-12-04T11:40:17.539Z,21.50
2018-12-04T11:41:17.493Z,21.53
2018-12-04T11:42:17.447Z,21.52
2018-12-04T11:43:17.399Z,21.52
2018-12-04T11:44:17.354Z,21.62
2018-12-04T11:45:17.305Z,21.65
2018-12-04T11:46:17.259Z,21.68
2018-12-04T11:47:17.214Z,21.69
2018-12-04T11:48:17.167Z,21.77
2018-12-04T11:49:17.125Z,21.64
2018-12-04T11:50:17.083Z,21.69
2018-12-04T11:51:17.027Z,21.82
2018-12-04T11:52:16.980Z,21.71
2018-12-04T11:53:16.985Z,21.82
2018-12-04T11:54:16.888Z,21.82
2018-12-04T11:55:16.842Z,21.84
2018-12-04T11:56:16.796Z,21.82
2018-12-04T11:57:16.748Z,21.88
2018-12-04T11:58:16.703Z,21.88
2018-12-04T11:59:16.655Z,21.90
2018-12-04T12:00:16.610Z,21.84
2018-12-04T12:01:16.563Z,21.83
2018-12-04T12:02:16.517Z,21.82
2018-12-04T12:03:16.470Z,21.79
2018-12-04T12:04:16.424Z,21.80
2018-12-04T12:05:16.377Z,21.84
2018-12-04T12:06:16.332Z,21.79
2018-12-04T12:07:20.535Z,21.74
2018-12-04T12:08:16.239Z,21.77
2018-12-04T12:09:16.192Z,21.74
2018-12-04T12:10:16.146Z,21.82
2018-12-04T12:11:16.100Z,21.77
2018-12-04T12:12:16.054Z,21.79
2018-12-04T12:13:16.006Z,21.79
2018-12-04T12:14:15.960Z,21.84
2018-12-04T12:15:18.046Z,21.83
2018-12-04T12:16:15.872Z,21.91
2018-12-04T12:17:15.821Z,21.91
2018-12-04T12:18:15.774Z,21.96
2018-12-04T12:19:15.728Z,21.92
2018-12-04T12:20:15.683Z,21.99
2018-12-04T12:21:15.639Z,21.96
2018-12-04T12:22:15.589Z,21.90
2018-12-04T12:23:15.543Z,21.91
2018-12-04T12:24:15.496Z,21.99
2018-12-04T12:25:15.453Z,22.03
2018-12-04T12:26:15.404Z,21.96
2018-12-04T12:27:15.358Z,22.07
2018-12-04T12:28:15.312Z,22.00
2018-12-04T12:29:15.265Z,22.03
2018-12-04T12:30:15.269Z,22.03
2018-12-04T12:31:15.175Z,22.06
2018-12-04T12:32:15.125Z,22.03
2018-12-04T12:33:15.078Z,22.03
2018-12-04T12:34:15.033Z,22.06
2018-12-04T12:35:14.990Z,22.06
2018-12-04T12:36:14.941Z,22.06
2018-12-04T12:37:14.894Z,22.06
2018-12-04T12:38:14.848Z,22.05
2018-12-04T12:39:14.802Z,21.99
2018-12-04T12:40:14.757Z,22.03
2018-12-04T12:41:14.709Z,21.92
2018-12-04T12:42:14.663Z,21.86
2018-12-04T12:43:14.616Z,21.90
2018-12-04T12:44:14.570Z,21.90
2018-12-04T12:45:14.523Z,21.91
2018-12-04T12:46:14.479Z,21.84
2018-12-04T12:47:14.430Z,21.79
2018-12-04T12:48:14.385Z,21.90
2018-12-04T12:49:14.338Z,21.90
2018-12-04T12:50:14.291Z,21.92
2018-12-04T12:51:14.249Z,21.91
2018-12-04T12:52:14.200Z,21.88